Time;durP1;ratioP1;P1;durP2;ratioP2;P2;SDS_P1;SDS_P2;PMS_P1;PMS_P2;Temp;Humidity;BMP_temperature;BMP_pressure;BME280_temperature;BME280_humidity;BME280_pressure;Samples;Min_cycle;Max_cycle;Signal;HPM_P1;HPM_P2
2024/01/05 00:01:23;;;;;;;6.17;2.13;;;3.70;47.20;;;;;;5047561;28;46396;-65
2024/01/05 00:03:49;;;;;;;4.07;1.77;;;3.80;47.30;;;;;;5046951;28;46747;-65
2024/01/05 00:06:14;;;;;;;7.80;2.10;;;3.70;47.20;;;;;;5048273;28;46839;-65
2024/01/05 00:08:40;;;;;;;7.63;2.07;;;3.70;47.20;;;;;;5048586;28;46697;-65
2024/01/05 00:11:05;;;;;;;10.30;1.90;;;3.80;47.20;;;;;;5049261;28;46156;-63
2024/01/05 00:13:31;;;;;;;8.90;2.47;;;3.80;47.30;;;;;;5048806;28;46416;-65
2024/01/05 00:15:57;;;;;;;5.73;1.57;;;3.80;47.30;;;;;;5048692;28;46703;-64
2024/01/05 00:18:22;;;;;;;10.40;2.00;;;3.80;47.30;;;;;;5048199;28;46429;-64
2024/01/05 00:20:48;;;;;;;4.03;1.70;;;3.80;47.30;;;;;;5049665;28;46412;-64
2024/01/05 00:23:14;;;;;;;6.60;1.90;;;3.80;47.30;;;;;;5032220;28;48310;-65
2024/01/05 00:25:39;;;;;;;9.03;1.60;;;3.80;47.30;;;;;;5047787;28;46793;-64
2024/01/05 00:28:05;;;;;;;8.70;2.10;;;3.70;47.20;;;;;;5045425;28;46411;-64
2024/01/05 00:30:33;;;;;;;5.90;1.53;;;3.70;47.20;;;;;;5048993;28;46601;-65
2024/01/05 00:32:58;;;;;;;13.07;2.10;;;3.70;47.20;;;;;;5047275;28;47265;-66
2024/01/05 00:35:24;;;;;;;3.67;1.90;;;3.70;47.20;;;;;;5046238;28;46878;-64
2024/01/05 00:37:49;;;;;;;5.13;1.70;;;3.70;47.20;;;;;;5047319;28;45865;-64
2024/01/05 00:40:15;;;;;;;3.60;1.60;;;3.70;47.20;;;;;;5047284;28;45875;-64
2024/01/05 00:42:40;;;;;;;3.60;1.70;;;3.70;47.20;;;;;;5044300;28;48286;-64
2024/01/05 00:45:06;;;;;;;6.70;1.77;;;3.70;47.20;;;;;;5047742;28;46372;-64
2024/01/05 00:47:32;;;;;;;3.83;1.60;;;3.70;47.20;;;;;;5045273;28;46820;-64
2024/01/05 00:49:57;;;;;;;8.40;2.10;;;3.60;47.20;;;;;;5049289;28;46770;-63
2024/01/05 00:52:23;;;;;;;13.30;2.57;;;3.60;47.50;;;;;;5045694;28;46436;-64
2024/01/05 00:54:49;;;;;;;4.63;1.40;;;3.50;47.70;;;;;;5050538;28;49105;-63
2024/01/05 00:57:14;;;;;;;4.13;1.60;;;3.50;48.00;;;;;;5051623;28;46350;-65
2024/01/05 00:59:40;;;;;;;4.57;1.87;;;3.50;48.20;;;;;;5054327;28;46392;-63
2024/01/05 01:02:05;;;;;;;4.83;2.07;;;3.40;48.50;;;;;;5049678;28;46946;-64
2024/01/05 01:04:31;;;;;;;5.03;1.70;;;3.40;48.50;;;;;;5052008;28;46411;-65
2024/01/05 01:06:56;;;;;;;7.07;2.20;;;3.30;48.40;;;;;;5051871;28;46500;-65
2024/01/05 01:09:22;;;;;;;3.50;1.50;;;3.30;48.50;;;;;;5045802;28;46425;-65
2024/01/05 01:11:50;;;;;;;8.63;1.40;;;3.30;48.30;;;;;;5057244;28;46484;-65
2024/01/05 01:14:17;;;;;;;11.80;1.90;;;3.30;48.30;;;;;;5048910;28;46503;-65
2024/01/05 01:16:42;;;;;;;5.77;1.63;;;3.30;48.20;;;;;;5052734;28;45877;-65
2024/01/05 01:19:08;;;;;;;5.93;2.20;;;3.30;48.40;;;;;;5053661;28;46505;-64
2024/01/05 01:21:33;;;;;;;5.83;1.90;;;3.20;48.40;;;;;;5053563;28;46450;-65
2024/01/05 01:24:00;;;;;;;6.70;1.70;;;3.10;48.40;;;;;;5048506;28;46315;-65
2024/01/05 01:26:25;;;;;;;9.27;1.98;;;3.10;48.40;;;;;;5052669;28;46915;-64
2024/01/05 01:28:51;;;;;;;5.40;1.97;;;3.10;48.40;;;;;;5052024;28;46802;-63
2024/01/05 01:31:16;;;;;;;4.53;1.70;;;3.10;49.40;;;;;;5045225;28;46543;-65
2024/01/05 01:33:42;;;;;;;10.73;2.10;;;3.10;48.00;;;;;;5054208;28;46470;-64
2024/01/05 01:36:08;;;;;;;2.07;1.30;;;3.10;47.90;;;;;;5047904;28;46307;-64
2024/01/05 01:38:33;;;;;;;5.73;1.80;;;3.10;47.80;;;;;;5053314;28;46663;-64
2024/01/05 01:40:59;;;;;;;3.70;1.60;;;3.10;47.90;;;;;;5052887;28;46069;-65
2024/01/05 01:43:26;;;;;;;6.67;1.57;;;3.10;47.90;;;;;;5051746;28;46570;-65
2024/01/05 01:45:54;;;;;;;5.78;1.83;;;3.00;47.70;;;;;;5050545;28;45863;-65
2024/01/05 01:48:20;;;;;;;8.30;1.87;;;3.00;48.00;;;;;;5048409;28;46624;-64
2024/01/05 01:50:48;;;;;;;5.73;1.70;;;3.00;48.00;;;;;;5051517;28;46217;-65
2024/01/05 01:53:16;;;;;;;9.30;1.67;;;3.00;47.80;;;;;;5050944;28;46408;-65
2024/01/05 01:55:42;;;;;;;5.50;1.47;;;3.10;47.70;;;;;;5049583;28;46962;-65
2024/01/05 01:58:09;;;;;;;7.17;1.60;;;3.10;47.40;;;;;;5049086;28;46662;-64
2024/01/05 02:00:34;;;;;;;2.90;1.30;;;3.10;47.00;;;;;;5052686;28;46327;-65
2024/01/05 02:03:03;;;;;;;5.17;1.60;;;3.10;46.70;;;;;;5051665;28;46443;-65
2024/01/05 02:05:28;;;;;;;3.30;1.37;;;3.10;46.70;;;;;;5041230;28;46799;-64
2024/01/05 02:07:55;;;;;;;3.50;1.37;;;3.10;46.70;;;;;;5048361;28;45828;-64
2024/01/05 02:10:21;;;;;;;2.90;1.53;;;3.10;46.70;;;;;;5050060;28;47058;-66
2024/01/05 02:12:47;;;;;;;4.70;1.33;;;3.00;47.00;;;;;;5057481;28;46377;-64
2024/01/05 02:15:12;;;;;;;5.47;2.30;;;3.00;47.00;;;;;;5050413;28;46662;-65
2024/01/05 02:17:38;;;;;;;5.00;1.20;;;3.00;47.30;;;;;;5051012;28;46682;-64
2024/01/05 02:20:04;;;;;;;4.33;1.40;;;3.00;47.30;;;;;;5038971;28;48644;-64
2024/01/05 02:22:33;;;;;;;2.85;1.20;;;3.00;47.20;;;;;;5052103;28;46519;-64
2024/01/05 02:24:58;;;;;;;7.70;2.00;;;3.00;47.30;;;;;;5051588;28;46371;-64
2024/01/05 02:27:25;;;;;;;3.23;1.40;;;3.00;47.20;;;;;;5061500;28;46890;-65
2024/01/05 02:29:50;;;;;;;7.55;1.50;;;3.00;47.20;;;;;;5051366;28;47095;-64
2024/01/05 02:32:17;;;;;;;5.37;1.30;;;2.90;47.00;;;;;;5052102;28;46356;-63
2024/01/05 02:34:43;;;;;;;3.80;1.55;;;2.90;47.30;;;;;;5048805;28;46585;-65
2024/01/05 02:37:10;;;;;;;4.20;1.40;;;2.90;47.50;;;;;;5054328;28;46349;-65
2024/01/05 02:39:36;;;;;;;5.50;1.60;;;2.90;47.40;;;;;;5055287;28;46479;-64
2024/01/05 02:42:02;;;;;;;4.70;1.80;;;2.90;47.00;;;;;;5052054;28;46552;-67
2024/01/05 02:44:27;;;;;;;2.50;1.50;;;2.90;47.10;;;;;;5055086;28;46424;-64
2024/01/05 02:46:53;;;;;;;3.63;1.57;;;3.00;47.10;;;;;;5054660;28;46337;-66
2024/01/05 02:49:19;;;;;;;5.00;1.57;;;3.00;47.00;;;;;;5059164;28;46425;-65
2024/01/05 02:51:44;;;;;;;3.97;1.50;;;3.00;46.80;;;;;;5039803;28;46653;-66
2024/01/05 02:54:10;;;;;;;3.20;1.37;;;3.00;46.60;;;;;;5054599;28;46384;-63
2024/01/05 02:56:35;;;;;;;3.80;1.40;;;3.00;46.60;;;;;;5053850;28;46390;-67
2024/01/05 02:59:03;;;;;;;6.07;1.60;;;3.00;46.60;;;;;;5057358;28;46402;-65
2024/01/05 03:01:28;;;;;;;3.28;1.35;;;3.00;46.70;;;;;;5056413;28;46401;-65
2024/01/05 03:03:54;;;;;;;2.00;1.20;;;2.90;47.10;;;;;;5053964;28;46649;-65
2024/01/05 03:06:20;;;;;;;2.60;1.20;;;2.90;47.30;;;;;;5054105;28;46318;-65
2024/01/05 03:08:46;;;;;;;5.97;1.63;;;3.10;46.90;;;;;;5057502;28;46537;-65
2024/01/05 03:11:11;;;;;;;3.40;1.25;;;3.10;46.70;;;;;;5052773;28;45991;-64
2024/01/05 03:13:37;;;;;;;4.87;1.80;;;3.10;46.70;;;;;;5053471;28;46503;-64
2024/01/05 03:16:04;;;;;;;4.47;1.40;;;3.10;46.70;;;;;;5054012;28;46536;-64
2024/01/05 03:18:30;;;;;;;5.30;1.90;;;3.20;46.70;;;;;;5052938;28;46662;-65
2024/01/05 03:20:55;;;;;;;2.13;1.10;;;3.20;46.80;;;;;;5053174;28;46836;-68
2024/01/05 03:23:21;;;;;;;7.37;1.60;;;3.30;46.90;;;;;;5053741;28;46365;-61
2024/01/05 03:25:48;;;;;;;2.63;1.30;;;3.20;46.80;;;;;;5055785;28;46416;-64
2024/01/05 03:28:14;;;;;;;2.05;1.20;;;3.20;46.80;;;;;;5051906;28;46479;-65
2024/01/05 03:30:41;;;;;;;5.32;1.30;;;3.20;46.70;;;;;;5051171;28;46775;-66
2024/01/05 03:33:06;;;;;;;5.03;1.50;;;3.10;46.70;;;;;;5049844;28;46439;-65
2024/01/05 03:35:32;;;;;;;3.00;1.30;;;3.10;46.70;;;;;;5053269;28;46543;-65
2024/01/05 03:37:58;;;;;;;4.23;1.17;;;3.10;46.70;;;;;;5050850;28;46453;-63
2024/01/05 03:40:23;;;;;;;6.03;1.53;;;3.00;46.60;;;;;;5050857;28;46525;-64
2024/01/05 03:42:49;;;;;;;3.70;1.50;;;3.00;46.60;;;;;;5051692;28;46588;-64
2024/01/05 03:45:14;;;;;;;4.30;1.30;;;3.00;46.60;;;;;;5053714;28;46638;-66
2024/01/05 03:47:40;;;;;;;2.47;1.20;;;3.00;46.60;;;;;;5050001;28;46477;-65
2024/01/05 03:50:07;;;;;;;4.33;1.60;;;3.10;46.70;;;;;;5054420;28;46395;-65
2024/01/05 03:52:32;;;;;;;4.40;1.40;;;3.00;46.60;;;;;;5053381;28;46375;-65
2024/01/05 03:54:58;;;;;;;3.33;1.70;;;3.00;46.60;;;;;;5047610;28;45816;-65
2024/01/05 03:57:24;;;;;;;2.27;1.40;;;2.90;46.60;;;;;;5053455;28;48197;-63
2024/01/05 03:59:50;;;;;;;6.50;2.10;;;3.00;46.60;;;;;;5051609;28;46412;-65
2024/01/05 04:02:16;;;;;;;5.32;1.60;;;3.00;46.60;;;;;;5051951;28;46481;-64
2024/01/05 04:04:42;;;;;;;6.60;1.37;;;3.00;46.60;;;;;;5032214;28;46685;-63
2024/01/05 04:07:07;;;;;;;6.77;1.60;;;3.10;46.70;;;;;;5052956;28;47654;-66
2024/01/05 04:09:33;;;;;;;3.30;1.40;;;3.00;46.60;;;;;;5053273;28;46612;-63
2024/01/05 04:11:59;;;;;;;2.90;1.30;;;3.00;46.60;;;;;;5035360;28;46478;-65
2024/01/05 04:14:25;;;;;;;4.63;1.43;;;3.00;46.60;;;;;;5054359;28;46428;-64
2024/01/05 04:16:50;;;;;;;3.90;1.50;;;3.00;46.60;;;;;;5052781;28;46409;-65
2024/01/05 04:19:16;;;;;;;3.50;1.97;;;3.10;46.70;;;;;;5050537;28;46456;-66
2024/01/05 04:21:42;;;;;;;4.10;2.10;;;3.20;46.30;;;;;;5056155;28;46745;-65
2024/01/05 04:24:08;;;;;;;6.60;2.83;;;3.10;46.10;;;;;;5050342;28;46273;-65
2024/01/05 04:26:34;;;;;;;11.27;2.60;;;3.10;46.00;;;;;;5032189;28;47438;-64
2024/01/05 04:29:00;;;;;;;4.20;2.10;;;3.10;45.90;;;;;;5051315;28;46389;-64
2024/01/05 04:31:26;;;;;;;6.73;2.20;;;3.10;45.80;;;;;;5054603;28;46728;-65
2024/01/05 04:33:52;;;;;;;5.00;2.20;;;3.20;46.00;;;;;;5054298;28;46525;-64
2024/01/05 04:36:18;;;;;;;4.57;1.60;;;3.10;46.00;;;;;;5054413;28;46685;-64
2024/01/05 04:38:44;;;;;;;6.50;1.58;;;3.20;46.20;;;;;;5052496;28;46361;-66
2024/01/05 04:41:14;;;;;;;2.97;1.50;;;3.20;46.30;;;;;;5052185;28;46397;-64
2024/01/05 04:43:40;;;;;;;7.80;1.83;;;3.20;46.20;;;;;;5049387;28;46342;-65
2024/01/05 04:46:08;;;;;;;4.00;1.67;;;3.30;45.80;;;;;;5048890;28;46683;-63
2024/01/05 04:48:34;;;;;;;5.43;1.85;;;3.30;45.50;;;;;;5052133;28;46759;-64
2024/01/05 04:51:02;;;;;;;3.15;1.95;;;3.40;45.50;;;;;;5048328;28;46384;-64
2024/01/05 04:53:28;;;;;;;6.65;1.92;;;3.40;45.50;;;;;;5055177;28;46737;-62
2024/01/05 04:55:54;;;;;;;1.70;1.13;;;3.30;45.50;;;;;;5046555;28;47110;-64
2024/01/05 04:58:19;;;;;;;2.20;1.20;;;3.30;46.00;;;;;;5050401;28;46819;-65
2024/01/05 05:00:45;;;;;;;4.53;1.30;;;3.20;46.40;;;;;;5051712;28;45843;-65
2024/01/05 05:03:13;;;;;;;3.53;1.67;;;3.20;46.60;;;;;;5035277;28;46551;-65
2024/01/05 05:05:39;;;;;;;5.35;1.27;;;3.20;46.80;;;;;;5049702;28;47472;-64
2024/01/05 05:08:05;;;;;;;4.10;1.33;;;3.20;46.80;;;;;;5052836;28;46431;-65
2024/01/05 05:10:30;;;;;;;4.17;1.60;;;3.20;46.30;;;;;;5049939;28;46486;-64
2024/01/05 05:12:56;;;;;;;5.17;2.07;;;3.20;45.80;;;;;;5055179;28;46622;-65
2024/01/05 05:15:21;;;;;;;1.90;1.30;;;3.30;45.60;;;;;;5049678;28;47454;-64
2024/01/05 05:17:47;;;;;;;5.90;1.53;;;3.20;45.50;;;;;;5051633;28;46408;-63
2024/01/05 05:20:12;;;;;;;5.60;1.63;;;3.30;45.60;;;;;;5046350;28;46334;-65
2024/01/05 05:22:38;;;;;;;6.97;1.73;;;3.30;45.80;;;;;;5053887;28;45812;-64
2024/01/05 05:25:05;;;;;;;3.90;1.80;;;3.30;45.70;;;;;;5048944;28;46757;-65
2024/01/05 05:27:31;;;;;;;3.08;1.42;;;3.30;45.40;;;;;;5052572;28;46227;-64
2024/01/05 05:29:57;;;;;;;4.47;1.60;;;3.40;45.30;;;;;;5049489;28;46406;-65
2024/01/05 05:32:23;;;;;;;5.00;1.50;;;3.40;45.10;;;;;;5046595;28;46718;-65
2024/01/05 05:34:49;;;;;;;6.77;2.13;;;3.40;44.90;;;;;;5047893;28;46700;-65
2024/01/05 05:37:15;;;;;;;5.70;2.30;;;3.50;44.90;;;;;;5050166;28;46350;-65
2024/01/05 05:39:40;;;;;;;6.20;2.47;;;3.50;45.00;;;;;;5052502;28;46487;-65
2024/01/05 05:42:06;;;;;;;4.80;1.80;;;3.50;45.00;;;;;;5050701;28;46416;-64
2024/01/05 05:44:31;;;;;;;9.40;1.97;;;3.50;44.90;;;;;;5052229;28;46458;-64
2024/01/05 05:46:57;;;;;;;6.37;2.10;;;3.50;45.00;;;;;;5048070;28;46332;-65
2024/01/05 05:49:22;;;;;;;3.37;1.80;;;3.50;45.10;;;;;;5051195;28;46433;-63
2024/01/05 05:51:48;;;;;;;5.30;1.70;;;3.50;45.20;;;;;;5049404;28;46528;-63
2024/01/05 05:54:14;;;;;;;4.20;1.80;;;3.60;45.30;;;;;;5050069;28;46349;-63
2024/01/05 05:56:40;;;;;;;3.65;1.85;;;3.60;45.00;;;;;;5048826;28;46666;-65
2024/01/05 05:59:05;;;;;;;8.03;1.70;;;3.70;46.10;;;;;;5053015;28;46660;-66
2024/01/05 06:01:31;;;;;;;11.30;5.03;;;3.80;44.70;;;;;;5049685;28;45995;-62
2024/01/05 06:03:57;;;;;;;52.30;20.90;;;3.80;44.80;;;;;;5052857;28;46885;-64
2024/01/05 06:06:23;;;;;;;11.20;6.57;;;3.80;44.80;;;;;;5050985;28;46502;-65
2024/01/05 06:08:51;;;;;;;6.53;3.00;;;3.70;44.70;;;;;;5053404;28;46585;-65
2024/01/05 06:11:18;;;;;;;4.33;1.70;;;3.60;45.10;;;;;;5050209;28;46507;-65
2024/01/05 06:13:44;;;;;;;5.70;1.30;;;3.60;45.20;;;;;;5049940;28;46844;-64
2024/01/05 06:16:10;;;;;;;3.78;1.73;;;3.60;45.30;;;;;;5051021;28;46659;-65
2024/01/05 06:18:37;;;;;;;2.33;1.50;;;3.60;45.50;;;;;;5046067;28;46508;-65
2024/01/05 06:21:03;;;;;;;2.20;1.40;;;3.50;45.40;;;;;;5047641;28;46469;-63
2024/01/05 06:23:30;;;;;;;2.47;1.43;;;3.50;45.70;;;;;;5048360;28;47455;-64
2024/01/05 06:25:56;;;;;;;3.65;1.50;;;3.50;45.60;;;;;;5051432;28;46573;-65
2024/01/05 06:28:22;;;;;;;4.13;1.37;;;3.60;45.40;;;;;;5048286;28;46436;-64
2024/01/05 06:30:47;;;;;;;2.10;1.20;;;3.70;45.10;;;;;;5047708;28;46388;-64
2024/01/05 06:33:13;;;;;;;2.50;1.40;;;3.70;44.70;;;;;;5050673;28;46487;-66
2024/01/05 06:35:38;;;;;;;2.47;1.40;;;3.80;44.40;;;;;;5049628;28;46399;-66
2024/01/05 06:38:04;;;;;;;2.07;1.27;;;3.80;44.10;;;;;;5049613;28;46683;-65
2024/01/05 06:40:29;;;;;;;3.67;1.90;;;3.90;44.10;;;;;;5050076;28;46720;-63
2024/01/05 06:42:57;;;;;;;4.53;2.27;;;3.90;43.80;;;;;;5047759;28;46994;-63
2024/01/05 06:45:23;;;;;;;2.97;1.60;;;4.00;43.70;;;;;;5031329;28;46805;-65
2024/01/05 06:47:48;;;;;;;4.45;1.77;;;4.00;43.60;;;;;;5049262;28;45819;-64
2024/01/05 06:50:14;;;;;;;3.87;2.10;;;4.00;43.70;;;;;;5055871;28;46442;-65
2024/01/05 06:52:40;;;;;;;7.83;3.70;;;4.00;43.60;;;;;;5048669;28;46718;-64
2024/01/05 06:55:05;;;;;;;21.10;9.30;;;4.10;43.60;;;;;;5047684;28;46327;-65
2024/01/05 06:57:31;;;;;;;16.30;7.07;;;4.10;43.50;;;;;;5049166;28;46738;-65
2024/01/05 06:59:57;;;;;;;11.50;4.40;;;4.20;43.60;;;;;;5051746;28;46393;-65
2024/01/05 07:02:23;;;;;;;8.83;4.40;;;4.20;43.30;;;;;;5045390;28;46448;-65
2024/01/05 07:04:48;;;;;;;16.03;4.00;;;4.20;43.30;;;;;;5051760;28;46323;-66
2024/01/05 07:07:14;;;;;;;9.17;3.43;;;4.30;43.20;;;;;;5053009;28;46424;-64
2024/01/05 07:09:40;;;;;;;6.20;3.17;;;4.40;43.00;;;;;;5052821;28;46443;-65
2024/01/05 07:12:06;;;;;;;4.03;2.30;;;4.40;42.70;;;;;;5050955;28;46624;-65
2024/01/05 07:14:31;;;;;;;10.57;5.07;;;4.60;42.70;;;;;;5036028;28;46627;-66
2024/01/05 07:16:58;;;;;;;17.93;8.90;;;4.50;42.50;;;;;;5055416;28;46381;-64
2024/01/05 07:19:26;;;;;;;17.47;8.40;;;4.50;42.60;;;;;;5055806;28;46439;-66
2024/01/05 07:21:53;;;;;;;9.40;5.77;;;4.50;42.50;;;;;;5047851;28;46402;-66
2024/01/05 07:24:19;;;;;;;7.93;4.37;;;4.50;42.60;;;;;;5048565;28;46419;-66
2024/01/05 07:26:44;;;;;;;3.80;1.97;;;4.50;42.50;;;;;;5052045;28;46425;-66
2024/01/05 07:29:10;;;;;;;4.43;2.00;;;4.40;42.60;;;;;;5034403;28;46419;-65
2024/01/05 07:31:36;;;;;;;3.20;1.90;;;4.30;43.00;;;;;;5048228;28;46174;-64
2024/01/05 07:34:02;;;;;;;7.63;4.20;;;4.40;43.00;;;;;;5047408;28;46250;-65
2024/01/05 07:36:28;;;;;;;8.88;4.70;;;4.40;42.70;;;;;;5048570;28;46445;-66
2024/01/05 07:38:58;;;;;;;12.63;5.60;;;4.50;42.50;;;;;;5049662;28;46691;-67
2024/01/05 07:41:25;;;;;;;10.17;5.80;;;4.50;42.30;;;;;;5049129;28;46420;-65
2024/01/05 07:43:50;;;;;;;5.13;2.53;;;4.50;42.20;;;;;;5034480;28;47010;-64
2024/01/05 07:46:16;;;;;;;6.70;2.70;;;4.60;42.20;;;;;;5052958;28;46404;-64
2024/01/05 07:48:42;;;;;;;7.30;4.80;;;4.60;42.10;;;;;;5049329;28;46464;-68
2024/01/05 07:51:09;;;;;;;3.97;2.20;;;4.60;42.20;;;;;;5047351;28;46991;-68
2024/01/05 07:53:34;;;;;;;3.47;1.90;;;4.60;42.10;;;;;;5047622;28;46493;-68
2024/01/05 07:56:02;;;;;;;3.60;2.27;;;4.70;42.20;;;;;;5047220;28;46465;-66
2024/01/05 07:58:28;;;;;;;6.90;2.40;;;4.70;42.00;;;;;;5031944;28;46636;-68
2024/01/05 08:00:53;;;;;;;6.90;1.70;;;4.70;41.90;;;;;;5043967;28;46368;-68
2024/01/05 08:03:20;;;;;;;3.53;1.90;;;4.80;41.90;;;;;;5045316;28;46555;-69
2024/01/05 08:05:46;;;;;;;4.40;1.90;;;4.70;41.60;;;;;;5046173;28;46677;-68
2024/01/05 08:08:11;;;;;;;13.97;6.57;;;4.80;41.40;;;;;;5044191;28;46923;-70
2024/01/05 08:10:37;;;;;;;6.20;3.73;;;4.70;41.30;;;;;;5046973;28;46519;-70
2024/01/05 08:13:03;;;;;;;4.30;2.30;;;4.80;41.40;;;;;;5047513;28;46567;-69
2024/01/05 08:15:28;;;;;;;4.83;2.77;;;4.90;41.40;;;;;;5032594;28;46548;-68
2024/01/05 08:17:54;;;;;;;5.93;2.73;;;4.90;41.10;;;;;;5046806;28;46564;-68
2024/01/05 08:20:20;;;;;;;4.07;2.23;;;5.00;40.90;;;;;;5045495;28;48550;-68
2024/01/05 08:22:45;;;;;;;6.83;2.40;;;5.00;40.70;;;;;;5045968;28;46545;-67
2024/01/05 08:25:14;;;;;;;4.33;2.03;;;5.00;40.50;;;;;;5047524;28;46673;-67
2024/01/05 08:27:40;;;;;;;3.37;1.93;;;5.20;40.40;;;;;;5045912;28;46401;-66
2024/01/05 08:30:10;;;;;;;4.40;2.20;;;5.20;40.00;;;;;;5044273;28;46678;-66
2024/01/05 08:32:36;;;;;;;4.90;2.53;;;5.30;39.90;;;;;;5044011;28;46487;-67
2024/01/05 08:35:01;;;;;;;3.30;2.00;;;5.40;39.60;;;;;;5046046;28;46506;-66
2024/01/05 08:37:27;;;;;;;5.00;2.50;;;5.40;39.30;;;;;;5045930;28;46683;-67
2024/01/05 08:39:52;;;;;;;3.40;2.20;;;5.50;39.00;;;;;;5045290;28;47094;-67
2024/01/05 08:42:18;;;;;;;2.30;1.60;;;5.60;38.80;;;;;;5043512;28;46383;-66
2024/01/05 08:44:43;;;;;;;2.60;1.80;;;5.60;38.50;;;;;;5046926;28;46479;-67
2024/01/05 08:47:09;;;;;;;4.00;1.50;;;5.70;38.50;;;;;;5045852;28;46678;-69
2024/01/05 08:49:35;;;;;;;3.83;1.47;;;5.80;38.30;;;;;;5047739;28;47620;-68
2024/01/05 08:52:00;;;;;;;3.00;1.80;;;5.90;38.00;;;;;;5045635;28;46735;-68
2024/01/05 08:54:26;;;;;;;3.50;1.57;;;6.00;37.50;;;;;;5047394;28;46437;-68
2024/01/05 08:56:52;;;;;;;5.43;2.50;;;6.10;37.20;;;;;;5044638;28;46489;-66
2024/01/05 08:59:18;;;;;;;10.30;3.90;;;6.20;37.00;;;;;;5045769;28;46456;-67
2024/01/05 09:01:44;;;;;;;11.17;4.57;;;6.30;36.60;;;;;;5045768;28;46825;-66
2024/01/05 09:04:10;;;;;;;4.93;2.30;;;6.40;36.40;;;;;;5045855;28;46463;-66
2024/01/05 09:06:39;;;;;;;5.50;2.27;;;6.40;36.30;;;;;;5046386;28;46903;-67
2024/01/05 09:09:05;;;;;;;10.37;5.23;;;6.40;36.30;;;;;;5042346;28;47595;-67
2024/01/05 09:11:30;;;;;;;8.60;4.43;;;6.40;36.30;;;;;;5044717;28;46734;-67
2024/01/05 09:13:56;;;;;;;7.17;3.50;;;6.50;36.40;;;;;;5044118;28;46439;-68
2024/01/05 09:16:22;;;;;;;4.27;2.23;;;6.70;36.60;;;;;;5046742;28;46548;-68
2024/01/05 09:18:49;;;;;;;6.07;1.60;;;6.80;36.20;;;;;;5045162;28;46446;-69
2024/01/05 09:21:15;;;;;;;3.60;1.60;;;6.90;35.80;;;;;;5045814;28;46391;-68
2024/01/05 09:23:41;;;;;;;5.70;1.90;;;7.00;35.60;;;;;;5045059;28;46595;-69
2024/01/05 09:26:16;;;;;;;4.10;1.97;;;7.10;35.30;;;;;;5043582;28;46496;-66
2024/01/05 09:28:42;;;;;;;5.80;1.80;;;7.30;35.00;;;;;;5029012;28;47087;-67
2024/01/05 09:31:11;;;;;;;5.20;1.70;;;7.40;35.70;;;;;;5041198;28;46457;-68
2024/01/05 09:33:37;;;;;;;3.00;1.67;;;7.50;34.00;;;;;;5045650;28;46475;-69
2024/01/05 09:36:03;;;;;;;3.23;1.73;;;7.70;33.80;;;;;;5048982;22;46594;-67
2024/01/05 09:38:29;;;;;;;5.50;1.83;;;7.70;33.50;;;;;;5027042;28;47119;-66
2024/01/05 09:40:55;;;;;;;5.83;2.20;;;7.80;33.30;;;;;;5028633;28;46553;-68
2024/01/05 09:43:24;;;;;;;4.57;2.17;;;7.70;34.40;;;;;;5025757;28;45944;-68
2024/01/05 09:45:51;;;;;;;6.30;2.30;;;7.70;33.20;;;;;;5026041;28;46103;-68
2024/01/05 09:48:21;;;;;;;3.10;2.03;;;7.70;32.80;;;;;;5026598;28;46417;-69
2024/01/05 09:50:55;;;;;;;5.90;1.83;;;7.80;33.00;;;;;;5027242;28;46625;-69
2024/01/05 09:53:20;;;;;;;4.53;2.10;;;7.80;32.80;;;;;;5027006;28;46349;-67
2024/01/05 09:55:50;;;;;;;3.73;2.17;;;7.90;32.60;;;;;;5016076;28;46859;-68
2024/01/05 09:58:16;;;;;;;7.13;2.60;;;7.90;32.50;;;;;;5026951;28;47321;-66
2024/01/05 10:00:46;;;;;;;8.57;3.90;;;7.90;32.50;;;;;;5031822;28;46368;-67
2024/01/05 10:03:17;;;;;;;6.60;3.00;;;8.00;32.50;;;;;;5027680;28;46527;-67
2024/01/05 10:05:42;;;;;;;9.40;3.17;;;8.00;32.30;;;;;;5028534;28;46536;-68
2024/01/05 10:08:08;;;;;;;5.30;2.80;;;8.00;31.90;;;;;;5027834;28;46989;-67
2024/01/05 10:10:59;;;;;;;6.47;2.23;;;8.10;32.20;;;;;;5027050;28;46443;-68
2024/01/05 10:13:25;;;;;;;5.93;2.40;;;8.20;31.90;;;;;;5028198;28;46482;-67
2024/01/05 10:16:00;;;;;;;6.77;2.40;;;8.20;31.90;;;;;;5028177;28;46566;-68
2024/01/05 10:18:28;;;;;;;4.33;2.00;;;8.20;31.80;;;;;;5029006;28;47848;-67
2024/01/05 10:20:55;;;;;;;4.93;2.47;;;8.20;31.70;;;;;;5023502;28;46428;-67
2024/01/05 10:23:21;;;;;;;3.90;2.10;;;8.20;31.50;;;;;;5030706;28;46625;-67
2024/01/05 10:25:47;;;;;;;5.53;1.87;;;8.30;31.20;;;;;;5028849;28;46472;-68
2024/01/05 10:28:19;;;;;;;5.43;2.40;;;8.40;31.00;;;;;;5032393;28;46464;-67
2024/01/05 10:30:45;;;;;;;5.33;2.27;;;8.40;30.70;;;;;;5025726;28;46437;-67
2024/01/05 10:33:11;;;;;;;6.97;3.60;;;8.50;30.80;;;;;;5027798;28;46374;-67
2024/01/05 10:35:36;;;;;;;8.60;2.63;;;8.60;30.10;;;;;;5030458;28;45870;-68
2024/01/05 10:38:08;;;;;;;7.80;3.10;;;8.60;30.30;;;;;;5026245;28;47522;-68
2024/01/05 10:40:34;;;;;;;8.10;2.50;;;8.70;30.10;;;;;;5026822;28;46495;-68
2024/01/05 10:43:13;;;;;;;5.70;3.07;;;8.80;30.00;;;;;;5029380;28;46123;-68
2024/01/05 10:45:41;;;;;;;11.30;4.40;;;8.90;29.80;;;;;;5034699;28;46277;-67
2024/01/05 10:48:09;;;;;;;6.27;2.70;;;9.00;29.50;;;;;;5030700;28;48154;-69
2024/01/05 10:50:37;;;;;;;6.20;2.30;;;9.00;29.30;;;;;;5026197;28;45942;-68
2024/01/05 10:53:04;;;;;;;7.00;2.70;;;9.10;29.10;;;;;;5031161;28;46485;-68
2024/01/05 10:55:31;;;;;;;3.83;1.90;;;9.10;29.00;;;;;;5030570;28;46503;-67
2024/01/05 10:57:57;;;;;;;6.50;2.60;;;9.20;29.20;;;;;;5026677;28;46279;-68
2024/01/05 11:00:24;;;;;;;7.10;3.87;;;9.30;29.00;;;;;;5031638;28;46431;-68
2024/01/05 11:02:52;;;;;;;5.37;2.73;;;9.40;28.70;;;;;;5030973;28;46581;-67
2024/01/05 11:05:20;;;;;;;6.03;2.57;;;9.50;28.50;;;;;;5031477;28;46405;-68
2024/01/05 11:07:48;;;;;;;7.23;2.10;;;9.70;28.40;;;;;;5031112;28;46394;-69
2024/01/05 11:10:37;;;;;;;6.00;2.70;;;9.80;28.20;;;;;;5030669;28;46369;-68
2024/01/05 11:13:44;;;;;;;6.43;2.80;;;9.90;28.00;;;;;;5024504;28;46445;-67
2024/01/05 11:16:28;;;;;;;6.53;3.00;;;10.00;27.10;;;;;;5012651;28;46573;-68
2024/01/05 11:18:54;;;;;;;6.03;3.03;;;10.00;27.00;;;;;;5028748;28;46127;-68
2024/01/05 11:21:37;;;;;;;4.60;2.83;;;10.10;27.00;;;;;;5029640;28;46429;-69
2024/01/05 11:24:03;;;;;;;8.50;3.83;;;10.20;26.70;;;;;;5028917;28;46509;-69
2024/01/05 11:26:32;;;;;;;7.50;4.00;;;10.30;26.30;;;;;;5031674;28;47193;-67
2024/01/05 11:28:57;;;;;;;7.60;3.10;;;10.40;26.40;;;;;;5028755;28;46538;-68
2024/01/05 11:31:46;;;;;;;5.57;2.60;;;10.50;26.50;;;;;;5033348;28;46464;-66
2024/01/05 11:34:31;;;;;;;4.90;2.03;;;10.60;26.50;;;;;;5021854;28;46776;-67
2024/01/05 11:36:58;;;;;;;4.10;1.70;;;10.70;26.70;;;;;;5029393;28;46620;-69
2024/01/05 11:39:45;;;;;;;5.90;2.20;;;10.60;26.50;;;;;;5029710;28;46369;-69
2024/01/05 11:42:33;;;;;;;4.20;1.50;;;10.50;26.50;;;;;;5029350;28;45777;-68
2024/01/05 11:45:02;;;;;;;3.07;1.60;;;10.50;26.50;;;;;;5028912;28;46432;-68
2024/01/05 11:47:45;;;;;;;3.97;1.60;;;10.50;27.00;;;;;;5026213;28;45943;-68
2024/01/05 11:50:26;;;;;;;3.40;1.50;;;10.50;26.50;;;;;;5031821;28;48176;-67
2024/01/05 11:53:13;;;;;;;4.60;1.97;;;10.50;26.50;;;;;;5026843;28;45967;-68
2024/01/05 11:55:48;;;;;;;6.10;2.10;;;10.40;27.10;;;;;;5027635;28;46546;-68
2024/01/05 11:58:31;;;;;;;5.27;2.93;;;10.30;27.30;;;;;;5029730;28;46369;-69
2024/01/05 12:00:59;;;;;;;5.63;2.67;;;10.40;27.20;;;;;;5030041;28;47193;-69
2024/01/05 12:03:25;;;;;;;6.50;2.10;;;10.60;26.90;;;;;;5030594;28;46728;-68
2024/01/05 12:06:02;;;;;;;7.00;2.93;;;10.80;26.70;;;;;;5028549;28;45889;-68
2024/01/05 12:08:28;;;;;;;5.07;2.17;;;10.90;26.70;;;;;;5028607;28;46357;-68
2024/01/05 12:11:00;;;;;;;5.60;2.40;;;11.10;26.90;;;;;;5009489;28;47399;-68
2024/01/05 12:13:27;;;;;;;8.17;2.57;;;11.20;26.80;;;;;;5010394;28;46744;-68
2024/01/05 12:15:54;;;;;;;6.90;2.40;;;11.40;26.50;;;;;;5028210;28;46493;-68
2024/01/05 12:18:25;;;;;;;4.00;2.43;;;11.50;26.10;;;;;;5027670;28;46491;-69
2024/01/05 12:20:54;;;;;;;5.23;2.20;;;11.60;25.90;;;;;;5025064;28;47473;-68
2024/01/05 12:23:20;;;;;;;6.90;2.30;;;11.70;25.70;;;;;;5027969;28;46933;-68
2024/01/05 12:26:06;;;;;;;4.83;2.57;;;11.80;25.40;;;;;;5024838;28;46355;-68
2024/01/05 12:28:37;;;;;;;6.17;2.60;;;11.90;25.10;;;;;;5029457;28;46481;-68
2024/01/05 12:31:04;;;;;;;26.10;12.80;;;12.00;25.10;;;;;;5027658;28;46508;-68
2024/01/05 12:33:31;;;;;;;12.30;3.70;;;12.00;25.00;;;;;;5026932;28;46795;-68
2024/01/05 12:35:56;;;;;;;9.33;3.80;;;11.90;24.80;;;;;;5026543;28;46785;-68
2024/01/05 12:38:26;;;;;;;11.03;3.27;;;11.90;25.00;;;;;;5009758;28;46477;-69
2024/01/05 12:40:52;;;;;;;8.47;5.10;;;11.70;25.10;;;;;;5025569;28;46734;-68
2024/01/05 12:43:19;;;;;;;7.73;3.40;;;11.70;25.40;;;;;;5026038;28;46715;-68
2024/01/05 12:45:48;;;;;;;7.33;4.07;;;11.60;25.40;;;;;;5031904;28;46535;-69
2024/01/05 12:48:15;;;;;;;5.20;3.30;;;11.50;26.50;;;;;;5035155;28;46412;-68
2024/01/05 12:50:40;;;;;;;10.67;5.00;;;11.50;25.50;;;;;;5027659;28;46760;-68
2024/01/05 12:53:32;;;;;;;6.73;2.80;;;11.40;25.50;;;;;;5026428;28;46550;-68
2024/01/05 12:56:10;;;;;;;4.80;2.30;;;11.30;25.50;;;;;;5022078;28;46459;-68